Time;durP1;ratioP1;P1;durP2;ratioP2;P2;SDS_P1;SDS_P2;PMS_P1;PMS_P2;Temp;Humidity;BMP_temperature;BMP_pressure;BME280_temperature;BME280_humidity;BME280_pressure;Samples;Min_cycle;Max_cycle;Signal;HPM_P1;HPM_P2
2021/11/09 00:00:55;;;;;;;1.87;1.53;;;12.60;93.60;;;;;;5095899;28;20485;-71
2021/11/09 00:03:29;;;;;;;2.70;1.70;;;12.70;93.20;;;;;;5096299;28;20473;-72
2021/11/09 00:06:06;;;;;;;1.97;1.80;;;12.60;92.90;;;;;;5101397;28;20485;-69
2021/11/09 00:08:42;;;;;;;1.70;1.50;;;12.50;93.10;;;;;;5106448;28;20932;-69
2021/11/09 00:11:13;;;;;;;2.63;2.10;;;12.40;93.30;;;;;;5097146;28;20542;-67
2021/11/09 00:13:44;;;;;;;2.60;1.80;;;12.30;93.20;;;;;;5107833;28;20951;-70
2021/11/09 00:16:15;;;;;;;1.70;1.60;;;12.30;93.20;;;;;;5097104;28;20891;-70
2021/11/09 00:18:49;;;;;;;3.60;2.30;;;12.20;93.40;;;;;;5101570;28;20565;-68
2021/11/09 00:21:20;;;;;;;2.10;1.90;;;12.10;93.30;;;;;;5100908;28;20829;-70
2021/11/09 00:23:52;;;;;;;5.17;1.70;;;12.10;93.20;;;;;;5108478;28;20484;-69
2021/11/09 00:26:23;;;;;;;4.40;1.93;;;12.00;93.30;;;;;;5102934;28;20493;-68
2021/11/09 00:28:55;;;;;;;1.60;1.50;;;12.10;93.10;;;;;;5107281;28;20578;-70
2021/11/09 00:31:26;;;;;;;1.70;1.60;;;12.00;93.00;;;;;;5106181;28;20475;-70
2021/11/09 00:33:59;;;;;;;2.10;1.90;;;12.00;93.10;;;;;;5100908;28;20537;-68
2021/11/09 00:36:30;;;;;;;1.83;1.63;;;12.00;93.70;;;;;;5094390;28;20465;-68
2021/11/09 00:39:01;;;;;;;4.50;2.27;;;12.00;93.40;;;;;;5105138;28;20454;-70
2021/11/09 00:41:32;;;;;;;2.10;1.47;;;11.90;93.10;;;;;;5091455;28;20450;-70
2021/11/09 00:44:03;;;;;;;2.50;1.63;;;11.90;93.40;;;;;;5092677;28;20507;-69
2021/11/09 00:46:34;;;;;;;1.70;1.60;;;11.90;93.20;;;;;;5091122;28;20478;-68
2021/11/09 00:49:06;;;;;;;1.83;1.63;;;11.80;93.20;;;;;;5091931;28;20575;-69
2021/11/09 00:51:38;;;;;;;2.50;1.73;;;11.80;93.50;;;;;;5090927;28;20530;-69
2021/11/09 00:54:09;;;;;;;1.67;1.57;;;11.70;93.80;;;;;;5092439;28;20458;-68
2021/11/09 00:56:40;;;;;;;1.67;1.20;;;11.80;93.60;;;;;;5099885;28;20493;-69
2021/11/09 00:59:14;;;;;;;1.67;1.40;;;11.70;94.20;;;;;;5100752;28;20445;-68
2021/11/09 01:01:45;;;;;;;1.83;1.33;;;11.70;93.90;;;;;;5101319;28;20489;-68
2021/11/09 01:04:18;;;;;;;6.27;1.40;;;11.70;94.10;;;;;;5091774;28;20563;-70
2021/11/09 01:06:50;;;;;;;5.73;2.43;;;11.60;94.20;;;;;;5097307;28;20457;-69
2021/11/09 01:09:21;;;;;;;1.30;1.20;;;11.60;94.60;;;;;;5101473;28;20535;-68
2021/11/09 01:11:54;;;;;;;2.20;1.40;;;11.60;94.70;;;;;;5090569;28;20450;-68
2021/11/09 01:14:27;;;;;;;1.37;1.10;;;11.50;94.60;;;;;;5105728;28;20489;-69
2021/11/09 01:16:58;;;;;;;2.00;1.53;;;11.60;95.00;;;;;;5101297;28;20490;-68
2021/11/09 01:19:32;;;;;;;2.53;2.33;;;11.60;94.80;;;;;;5095293;28;20737;-69
2021/11/09 01:22:06;;;;;;;1.37;1.20;;;11.50;95.00;;;;;;5104601;28;20801;-68
2021/11/09 01:24:37;;;;;;;2.20;1.70;;;11.50;95.00;;;;;;5110629;28;20489;-68
2021/11/09 01:27:08;;;;;;;2.17;1.77;;;11.40;95.10;;;;;;5100855;28;20454;-69
2021/11/09 01:29:40;;;;;;;1.60;1.40;;;11.40;95.00;;;;;;5096844;28;20251;-69
2021/11/09 01:32:11;;;;;;;1.50;1.23;;;11.40;95.20;;;;;;5100849;28;20454;-68
2021/11/09 01:34:44;;;;;;;1.73;1.00;;;11.40;94.90;;;;;;5104935;28;20454;-68
2021/11/09 01:37:15;;;;;;;1.90;1.57;;;11.50;94.80;;;;;;5091688;28;20515;-68
2021/11/09 01:39:46;;;;;;;1.40;1.30;;;11.50;94.80;;;;;;5111413;28;20457;-69
2021/11/09 01:42:17;;;;;;;2.40;1.37;;;11.50;94.80;;;;;;5112131;28;20510;-69
2021/11/09 01:44:48;;;;;;;3.07;1.47;;;11.50;94.50;;;;;;5110962;28;20481;-69
2021/11/09 01:47:20;;;;;;;2.33;1.67;;;11.50;94.40;;;;;;5102577;28;20569;-68
2021/11/09 01:49:53;;;;;;;4.53;1.43;;;11.50;94.10;;;;;;5094767;28;20474;-69
2021/11/09 01:52:24;;;;;;;1.40;1.30;;;11.50;94.30;;;;;;5091190;28;20455;-69
2021/11/09 01:54:57;;;;;;;3.73;1.30;;;11.50;93.70;;;;;;5091428;28;20950;-69
2021/11/09 01:57:28;;;;;;;1.73;1.30;;;11.50;93.60;;;;;;5089253;28;20454;-69
2021/11/09 02:00:03;;;;;;;1.77;1.30;;;11.50;93.50;;;;;;5089566;28;20543;-69
2021/11/09 02:02:34;;;;;;;3.20;1.70;;;11.50;93.30;;;;;;5090335;28;20474;-68
2021/11/09 02:05:08;;;;;;;3.30;1.60;;;11.50;93.00;;;;;;5095926;28;20499;-69
2021/11/09 02:07:45;;;;;;;2.20;1.20;;;11.50;93.40;;;;;;5091106;28;20490;-69
2021/11/09 02:10:18;;;;;;;6.80;1.50;;;11.40;92.90;;;;;;5096385;28;20883;-68
2021/11/09 02:12:49;;;;;;;2.20;1.55;;;11.40;93.00;;;;;;5094936;28;20454;-68
2021/11/09 02:15:20;;;;;;;2.40;1.60;;;11.40;92.40;;;;;;5096112;28;20238;-68
2021/11/09 02:17:54;;;;;;;1.47;1.13;;;11.40;92.20;;;;;;5097934;28;20462;-68
2021/11/09 02:20:28;;;;;;;2.23;1.37;;;11.50;91.90;;;;;;5099265;28;20451;-69
2021/11/09 02:23:02;;;;;;;2.53;1.67;;;11.50;91.80;;;;;;5110496;28;20453;-68
2021/11/09 02:25:35;;;;;;;1.77;1.17;;;11.50;91.70;;;;;;5090781;28;20478;-69
2021/11/09 02:28:10;;;;;;;1.50;1.30;;;11.60;91.90;;;;;;5090633;28;20458;-68
2021/11/09 02:30:42;;;;;;;2.80;1.23;;;11.60;91.30;;;;;;5098683;28;20504;-68
2021/11/09 02:33:13;;;;;;;1.83;1.33;;;11.70;91.00;;;;;;5106247;28;20804;-69
2021/11/09 02:35:45;;;;;;;1.83;1.37;;;11.70;90.70;;;;;;5103030;28;20520;-69
2021/11/09 02:38:17;;;;;;;2.37;1.20;;;11.70;91.30;;;;;;5100542;28;20449;-68
2021/11/09 02:40:49;;;;;;;3.07;0.90;;;11.70;90.70;;;;;;5108798;28;20453;-68
2021/11/09 02:43:21;;;;;;;2.63;1.43;;;11.80;90.50;;;;;;5098728;28;20457;-67
2021/11/09 02:46:08;;;;;;;1.97;1.30;;;11.80;90.40;;;;;;5093806;28;20458;-68
2021/11/09 02:48:43;;;;;;;1.30;1.20;;;11.90;90.10;;;;;;5098214;28;20454;-70
2021/11/09 02:51:17;;;;;;;1.23;0.97;;;11.90;90.00;;;;;;5096882;28;20515;-68
2021/11/09 02:53:54;;;;;;;2.50;1.43;;;11.90;90.10;;;;;;5099201;28;20460;-69
2021/11/09 02:56:30;;;;;;;2.50;1.50;;;12.00;89.40;;;;;;5095396;28;20497;-69
2021/11/09 02:59:06;;;;;;;1.33;1.07;;;11.90;89.80;;;;;;5090210;28;20486;-68
2021/11/09 03:01:40;;;;;;;2.70;1.63;;;11.90;89.30;;;;;;5099968;28;20594;-69
2021/11/09 03:04:13;;;;;;;1.53;1.43;;;12.00;89.00;;;;;;5103447;28;20469;-68
2021/11/09 03:06:49;;;;;;;1.40;1.20;;;12.00;89.20;;;;;;5098203;28;20450;-68
2021/11/09 03:09:32;;;;;;;1.23;1.10;;;12.00;88.00;;;;;;5110445;28;20492;-68
2021/11/09 03:12:05;;;;;;;1.50;1.30;;;12.10;87.90;;;;;;5088033;28;20951;-69
2021/11/09 03:14:36;;;;;;;2.57;1.70;;;12.10;87.80;;;;;;5103249;28;20506;-69
2021/11/09 03:17:14;;;;;;;1.83;1.43;;;12.10;87.70;;;;;;5104404;28;20492;-69
2021/11/09 03:19:48;;;;;;;1.43;1.20;;;12.10;87.70;;;;;;5100619;28;20449;-69
2021/11/09 03:44:57;;;;;;;2.90;2.17;;;12.20;84.30;;;;;;5098046;28;20955;-69
2021/11/09 03:47:27;;;;;;;2.40;1.70;;;12.30;84.90;;;;;;5089178;28;20487;-69
2021/11/09 03:49:59;;;;;;;3.00;1.80;;;12.30;85.40;;;;;;5090037;28;20819;-69
2021/11/09 03:52:38;;;;;;;3.13;2.00;;;12.30;84.90;;;;;;5102063;28;20511;-69
2021/11/09 03:55:12;;;;;;;2.83;1.87;;;12.30;84.00;;;;;;5090155;28;20497;-69
2021/11/09 03:57:49;;;;;;;3.37;1.90;;;12.30;85.60;;;;;;5106367;28;20981;-69
2021/11/09 04:00:29;;;;;;;1.87;1.57;;;12.30;83.80;;;;;;5099110;28;21057;-69
2021/11/09 04:03:03;;;;;;;2.77;2.10;;;12.40;83.60;;;;;;5109460;28;20534;-69
2021/11/09 04:05:37;;;;;;;2.77;2.10;;;12.40;86.60;;;;;;5102350;28;20534;-68
2021/11/09 04:08:14;;;;;;;2.33;2.03;;;12.30;86.70;;;;;;5104788;28;20463;-69
2021/11/09 04:10:50;;;;;;;2.00;1.77;;;12.30;85.80;;;;;;5090166;28;20537;-69
2021/11/09 04:13:32;;;;;;;1.90;1.70;;;12.30;84.80;;;;;;5093572;28;20527;-69
2021/11/09 04:16:27;;;;;;;2.20;2.00;;;12.30;85.30;;;;;;5105021;28;20485;-69
2021/11/09 04:19:09;;;;;;;4.80;2.00;;;12.30;85.60;;;;;;5098816;28;20529;-69
2021/11/09 04:22:21;;;;;;;1.87;1.70;;;12.30;86.20;;;;;;5096802;28;20776;-68
2021/11/09 04:27:47;;;;;;;3.73;2.03;;;12.20;88.60;;;;;;5091600;28;20822;-69
2021/11/09 04:50:20;;;;;;;1.77;1.43;;;12.00;92.00;;;;;;5109924;28;20454;-69
2021/11/09 05:01:32;;;;;;;1.73;1.63;;;11.70;94.70;;;;;;5092053;28;20450;-69
2021/11/09 05:09:41;;;;;;;3.00;2.17;;;11.50;98.50;;;;;;5107111;28;20462;-69
2021/11/09 05:12:13;;;;;;;2.37;1.73;;;11.40;98.90;;;;;;5098869;28;20569;-68
2021/11/09 05:14:43;;;;;;;1.90;1.80;;;11.30;99.90;;;;;;5106320;28;20453;-69
2021/11/09 05:17:14;;;;;;;5.67;1.83;;;11.10;99.90;;;;;;5104018;28;20457;-68
2021/11/09 05:19:47;;;;;;;2.50;1.57;;;11.00;99.90;;;;;;5100321;28;20792;-68
2021/11/09 05:22:18;;;;;;;4.30;1.98;;;10.90;99.90;;;;;;5102674;28;20532;-68
2021/11/09 05:24:49;;;;;;;2.75;1.50;;;10.70;99.90;;;;;;5106025;28;20284;-68
2021/11/09 05:27:20;;;;;;;2.13;1.85;;;10.60;99.90;;;;;;5101352;28;20612;-68
2021/11/09 05:29:51;;;;;;;2.03;1.83;;;10.40;99.90;;;;;;5095534;28;20224;-68
2021/11/09 05:32:22;;;;;;;1.90;1.58;;;10.20;99.90;;;;;;5091554;28;20661;-69
2021/11/09 05:34:54;;;;;;;2.90;1.63;;;10.10;99.90;;;;;;5095249;28;20300;-69
2021/11/09 05:37:30;;;;;;;2.23;1.87;;;10.10;99.90;;;;;;5103544;28;20222;-69
2021/11/09 05:40:04;;;;;;;1.95;1.60;;;10.00;99.90;;;;;;5093969;28;20450;-68
2021/11/09 05:42:35;;;;;;;1.40;1.30;;;10.00;99.90;;;;;;5102062;28;20223;-68
2021/11/09 05:45:06;;;;;;;2.15;1.40;;;9.90;99.90;;;;;;5104798;28;20239;-68
2021/11/09 05:47:37;;;;;;;1.10;1.10;;;9.80;99.90;;;;;;5091162;28;20212;-68
2021/11/09 05:50:10;;;;;;;1.40;1.30;;;9.80;99.90;;;;;;5100016;28;20221;-68
2021/11/09 05:52:41;;;;;;;2.67;1.70;;;9.70;99.90;;;;;;5105160;28;20228;-68
2021/11/09 05:55:12;;;;;;;1.77;1.40;;;9.60;99.90;;;;;;5091833;28;20658;-68
2021/11/09 05:57:43;;;;;;;2.03;1.50;;;9.60;99.90;;;;;;5099730;28;20532;-68
2021/11/09 06:00:15;;;;;;;2.03;1.20;;;9.50;99.90;;;;;;5106483;28;20219;-68
2021/11/09 06:02:46;;;;;;;4.03;1.58;;;9.50;99.90;;;;;;5110602;28;20238;-68
2021/11/09 06:05:18;;;;;;;3.17;1.98;;;9.40;99.90;;;;;;5096854;28;20216;-68
2021/11/09 06:07:49;;;;;;;3.15;2.13;;;9.40;99.90;;;;;;5106313;28;20657;-68
2021/11/09 06:10:20;;;;;;;2.40;1.35;;;9.40;99.90;;;;;;5096522;28;20219;-68
2021/11/09 06:12:51;;;;;;;2.25;1.48;;;9.30;99.90;;;;;;5102489;28;20235;-68
2021/11/09 06:15:21;;;;;;;5.55;1.75;;;9.20;99.90;;;;;;5096964;28;20217;-68
2021/11/09 06:17:52;;;;;;;1.60;1.50;;;9.10;99.90;;;;;;5102059;28;20222;-68
2021/11/09 06:20:24;;;;;;;1.70;1.60;;;9.00;99.90;;;;;;5092030;28;20212;-68
2021/11/09 06:23:01;;;;;;;2.15;1.55;;;8.90;99.90;;;;;;5097236;28;20588;-68
2021/11/09 06:25:31;;;;;;;3.30;1.40;;;8.80;99.90;;;;;;5090974;28;20651;-69
2021/11/09 06:28:05;;;;;;;3.20;2.17;;;8.80;99.90;;;;;;5097665;28;20218;-68
2021/11/09 06:30:36;;;;;;;3.33;1.60;;;8.70;99.90;;;;;;5096150;28;20291;-68
2021/11/09 06:33:07;;;;;;;3.17;1.63;;;8.70;99.90;;;;;;5098380;28;20296;-68
2021/11/09 06:35:39;;;;;;;2.70;1.60;;;8.60;99.90;;;;;;5095378;28;20559;-68
2021/11/09 06:38:10;;;;;;;2.33;1.60;;;8.60;99.90;;;;;;5104831;27;20669;-68
2021/11/09 06:40:41;;;;;;;2.80;1.60;;;8.60;99.90;;;;;;5095724;28;20212;-68
2021/11/09 06:43:12;;;;;;;2.63;1.80;;;8.50;99.90;;;;;;5100580;28;20208;-69
2021/11/09 06:45:43;;;;;;;3.03;1.88;;;8.50;99.90;;;;;;5095756;28;20223;-69
2021/11/09 06:48:14;;;;;;;4.88;2.15;;;8.50;99.90;;;;;;5107003;28;20301;-69
2021/11/09 06:50:46;;;;;;;3.00;1.90;;;8.50;99.90;;;;;;5091019;28;20222;-69
2021/11/09 06:53:17;;;;;;;1.80;1.70;;;8.50;99.90;;;;;;5105778;28;20224;-69
2021/11/09 06:55:48;;;;;;;2.90;1.63;;;8.50;99.90;;;;;;5098882;28;20212;-69
2021/11/09 06:58:19;;;;;;;2.28;1.80;;;8.40;99.90;;;;;;5098795;28;20212;-68
2021/11/09 07:00:50;;;;;;;2.88;1.85;;;8.50;99.90;;;;;;5094209;28;20647;-69
2021/11/09 07:03:21;;;;;;;1.70;1.60;;;8.50;99.90;;;;;;5100352;28;20681;-68
2021/11/09 07:05:53;;;;;;;2.22;1.80;;;8.50;99.90;;;;;;5108546;28;20255;-68
2021/11/09 07:08:24;;;;;;;3.80;2.40;;;8.50;99.90;;;;;;5098282;28;20574;-69
2021/11/09 07:10:55;;;;;;;3.00;2.50;;;8.50;99.90;;;;;;5095703;28;20243;-68
2021/11/09 07:13:26;;;;;;;2.70;2.35;;;8.50;99.90;;;;;;5098308;28;20224;-69
2021/11/09 07:15:56;;;;;;;3.33;2.40;;;8.50;99.90;;;;;;5100362;28;20310;-69
2021/11/09 07:18:28;;;;;;;2.50;2.30;;;8.50;99.90;;;;;;5092831;28;20299;-69
2021/11/09 07:21:00;;;;;;;2.55;2.00;;;8.50;99.90;;;;;;5106944;28;20208;-68
2021/11/09 07:23:31;;;;;;;2.95;2.70;;;8.50;99.90;;;;;;5094016;28;20204;-69
2021/11/09 07:26:02;;;;;;;2.55;2.35;;;8.50;99.90;;;;;;5096545;28;20216;-68
2021/11/09 07:28:33;;;;;;;3.47;2.20;;;8.50;99.90;;;;;;5101767;28;20627;-68
2021/11/09 07:31:09;;;;;;;2.63;2.30;;;8.60;99.90;;;;;;5101471;28;20667;-69
2021/11/09 07:33:40;;;;;;;3.97;2.55;;;8.60;99.90;;;;;;5098260;28;20242;-68
2021/11/09 07:36:12;;;;;;;4.55;2.45;;;8.60;99.90;;;;;;5099002;28;20581;-68
2021/11/09 07:38:43;;;;;;;2.50;2.30;;;8.60;99.90;;;;;;5111104;28;20215;-68
2021/11/09 07:41:15;;;;;;;2.55;2.35;;;8.60;99.90;;;;;;5098351;28;20235;-68
2021/11/09 07:43:45;;;;;;;2.40;2.20;;;8.60;99.90;;;;;;5109116;28;20207;-68
2021/11/09 07:46:16;;;;;;;2.63;2.25;;;8.70;99.90;;;;;;5099769;28;20681;-68
2021/11/09 07:48:47;;;;;;;3.08;2.40;;;8.70;99.90;;;;;;5096814;28;20212;-68
2021/11/09 07:51:21;;;;;;;3.35;2.63;;;8.60;99.90;;;;;;5100926;28;20681;-69
2021/11/09 07:53:53;;;;;;;3.78;3.47;;;8.60;99.90;;;;;;5102338;28;20662;-69
2021/11/09 07:56:26;;;;;;;3.08;2.60;;;8.70;99.90;;;;;;5101267;28;20682;-68
2021/11/09 07:59:10;;;;;;;3.13;2.30;;;8.70;99.90;;;;;;5100311;28;20239;-69
2021/11/09 08:01:43;;;;;;;2.65;2.20;;;8.70;99.90;;;;;;5103340;28;20220;-69
2021/11/09 08:04:16;;;;;;;3.35;2.38;;;8.70;99.90;;;;;;5102490;28;20654;-69
2021/11/09 08:06:53;;;;;;;3.75;2.53;;;8.70;99.90;;;;;;5102683;28;20214;-69
2021/11/09 08:09:27;;;;;;;2.92;2.65;;;8.70;99.90;;;;;;5093428;28;20227;-69
2021/11/09 08:11:59;;;;;;;4.13;2.50;;;8.70;99.90;;;;;;5100631;28;20737;-69
2021/11/09 08:14:33;;;;;;;2.42;2.08;;;8.70;99.90;;;;;;5107094;28;20208;-69
2021/11/09 08:17:08;;;;;;;3.47;2.90;;;8.70;99.90;;;;;;5109223;28;20211;-69
2021/11/09 08:19:39;;;;;;;2.70;2.50;;;8.70;99.90;;;;;;5111835;28;20685;-68
2021/11/09 08:22:12;;;;;;;4.45;2.70;;;8.70;99.90;;;;;;5104665;28;20220;-68
2021/11/09 08:24:44;;;;;;;2.70;2.50;;;8.70;99.90;;;;;;5091846;28;20244;-68
2021/11/09 08:27:15;;;;;;;2.15;2.03;;;8.80;99.90;;;;;;5092093;28;20701;-68
2021/11/09 08:29:50;;;;;;;2.55;2.35;;;8.80;99.90;;;;;;5093843;28;20240;-69
2021/11/09 08:32:21;;;;;;;5.13;2.63;;;8.80;99.90;;;;;;5093283;28;20208;-69
2021/11/09 08:34:52;;;;;;;2.60;2.40;;;8.80;99.90;;;;;;5091619;28;20213;-68
2021/11/09 08:37:24;;;;;;;2.90;2.35;;;8.80;99.90;;;;;;5104484;28;20212;-69
2021/11/09 08:39:56;;;;;;;3.15;2.95;;;8.80;99.90;;;;;;5101140;28;20682;-69
2021/11/09 08:42:29;;;;;;;2.97;2.78;;;8.80;99.90;;;;;;5101312;28;20212;-69
2021/11/09 08:45:06;;;;;;;3.65;2.88;;;8.80;99.90;;;;;;5096523;28;20580;-69
2021/11/09 08:47:43;;;;;;;3.22;2.47;;;8.80;99.90;;;;;;5096892;28;20203;-68
2021/11/09 08:50:14;;;;;;;2.90;2.58;;;8.90;99.90;;;;;;5096457;28;20223;-68
2021/11/09 08:52:46;;;;;;;2.70;2.50;;;8.90;99.90;;;;;;5098649;28;20231;-68
2021/11/09 08:55:28;;;;;;;3.10;2.90;;;8.90;99.90;;;;;;5111656;28;20223;-68
2021/11/09 09:06:18;;;;;;;2.95;2.75;;;9.00;99.90;;;;;;5104868;28;20697;-68
2021/11/09 09:08:51;;;;;;;4.05;2.72;;;8.90;99.90;;;;;;5112873;28;20215;-68
2021/11/09 09:11:22;;;;;;;3.05;2.60;;;9.00;99.90;;;;;;5104912;28;20300;-68
2021/11/09 09:13:52;;;;;;;5.68;3.00;;;8.90;99.90;;;;;;5099281;28;20243;-68
2021/11/09 09:16:24;;;;;;;2.50;2.30;;;8.90;99.90;;;;;;5096216;28;20551;-68
2021/11/09 09:18:55;;;;;;;2.95;2.58;;;8.90;99.90;;;;;;5107425;28;20215;-68
2021/11/09 09:21:29;;;;;;;2.60;2.40;;;8.80;99.90;;;;;;5107394;28;20212;-68
2021/11/09 09:24:08;;;;;;;2.90;2.70;;;8.80;99.90;;;;;;5111480;28;20203;-68
2021/11/09 09:26:43;;;;;;;2.60;2.40;;;8.90;99.90;;;;;;5094128;28;20207;-68
2021/11/09 09:32:41;;;;;;;3.05;2.58;;;8.90;99.90;;;;;;5034766;28;20639;-68
2021/11/09 09:52:19;;;;;;;2.22;1.95;;;8.90;99.90;;;;;;5091966;28;20314;-69
2021/11/09 09:55:14;;;;;;;2.08;1.88;;;9.00;99.90;;;;;;5089899;28;20227;-68
2021/11/09 09:57:47;;;;;;;2.13;1.98;;;8.90;99.90;;;;;;5090040;28;20303;-74
2021/11/09 10:00:18;;;;;;;1.60;1.50;;;8.90;99.90;;;;;;5095153;28;20209;-70
2021/11/09 10:02:55;;;;;;;2.10;1.70;;;8.90;99.90;;;;;;5100853;28;20319;-70
2021/11/09 10:05:29;;;;;;;2.70;1.90;;;8.90;99.90;;;;;;5111580;28;20216;-68
2021/11/09 10:08:01;;;;;;;1.80;1.70;;;8.90;99.90;;;;;;5108292;28;20219;-70
2021/11/09 10:10:36;;;;;;;2.35;2.15;;;8.90;99.90;;;;;;5098711;28;20239;-69
2021/11/09 10:13:10;;;;;;;2.58;1.95;;;9.00;99.90;;;;;;5102638;28;20216;-69
2021/11/09 10:15:45;;;;;;;4.07;2.30;;;9.00;99.90;;;;;;5105630;28;20225;-69
2021/11/09 10:18:18;;;;;;;2.50;2.30;;;9.00;99.90;;;;;;5106669;28;20234;-69
2021/11/09 10:20:50;;;;;;;3.15;2.42;;;9.00;99.90;;;;;;5105078;28;20226;-68
2021/11/09 10:23:23;;;;;;;2.20;2.10;;;9.00;99.90;;;;;;5104978;28;20208;-69
2021/11/09 10:25:59;;;;;;;3.40;3.20;;;9.00;99.90;;;;;;5103483;28;20208;-69
2021/11/09 10:28:32;;;;;;;1.90;1.80;;;9.00;99.90;;;;;;5099704;28;20566;-70
2021/11/09 10:31:04;;;;;;;2.38;2.15;;;9.00;99.90;;;;;;5090960;28;20213;-69
2021/11/09 10:33:41;;;;;;;3.03;2.10;;;9.00;99.90;;;;;;5094914;28;20234;-69
2021/11/09 10:36:19;;;;;;;3.00;2.25;;;9.00;99.90;;;;;;5101424;28;20227;-69
2021/11/09 10:38:50;;;;;;;2.00;1.90;;;9.00;99.90;;;;;;5102552;28;20540;-69
2021/11/09 10:41:21;;;;;;;2.30;2.20;;;9.00;99.90;;;;;;5109360;28;20211;-69
2021/11/09 10:44:10;;;;;;;2.20;2.00;;;9.00;99.90;;;;;;5104023;28;20201;-74
2021/11/09 10:46:41;;;;;;;1.73;1.63;;;9.00;99.90;;;;;;5094493;28;20242;-69
2021/11/09 10:49:11;;;;;;;3.53;2.03;;;9.00;99.90;;;;;;5110387;28;20211;-73
2021/11/09 10:52:03;;;;;;;3.00;1.98;;;9.00;99.90;;;;;;5101781;28;20223;-73
2021/11/09 10:54:45;;;;;;;2.38;2.15;;;9.00;99.90;;;;;;5088628;28;20228;-71
2021/11/09 10:57:22;;;;;;;2.10;2.00;;;9.10;99.90;;;;;;5099350;28;20568;-69
2021/11/09 11:00:13;;;;;;;2.20;2.00;;;9.10;99.90;;;;;;5093865;28;20216;-69
2021/11/09 11:05:31;;;;;;;3.08;2.28;;;9.00;99.90;;;;;;5095739;28;20220;-75
2021/11/09 11:08:02;;;;;;;1.80;1.70;;;9.10;99.90;;;;;;5105359;28;20214;-69
2021/11/09 11:10:35;;;;;;;2.50;2.30;;;9.20;99.90;;;;;;5091191;28;20662;-68
2021/11/09 11:13:25;;;;;;;2.63;2.42;;;9.20;99.90;;;;;;5088362;28;20216;-69
2021/11/09 11:16:14;;;;;;;3.53;2.35;;;9.20;99.90;;;;;;5094686;28;20212;-69
2021/11/09 11:18:47;;;;;;;2.75;2.40;;;9.10;99.90;;;;;;5098297;28;20238;-71
2021/11/09 11:21:18;;;;;;;1.95;1.85;;;9.10;99.90;;;;;;5096701;28;20220;-68
2021/11/09 11:23:50;;;;;;;2.70;2.40;;;9.10;99.90;;;;;;5108839;28;20569;-73
2021/11/09 11:26:21;;;;;;;1.95;1.85;;;9.20;99.90;;;;;;5105127;28;20226;-69
2021/11/09 11:28:54;;;;;;;2.25;2.05;;;9.20;99.90;;;;;;5110452;28;20204;-71
2021/11/09 11:31:29;;;;;;;2.17;2.08;;;9.30;99.90;;;;;;5108611;28;20204;-70
2021/11/09 11:34:00;;;;;;;2.90;2.70;;;9.30;99.90;;;;;;5098179;28;20335;-68
2021/11/09 11:36:31;;;;;;;2.60;2.40;;;9.40;99.90;;;;;;5100956;28;20223;-68
2021/11/09 11:39:06;;;;;;;3.97;3.63;;;9.40;99.90;;;;;;5094777;28;20216;-70
2021/11/09 11:41:40;;;;;;;2.72;2.53;;;9.40;99.90;;;;;;5108589;28;20283;-68
2021/11/09 11:44:13;;;;;;;3.60;3.30;;;9.50;99.90;;;;;;5102411;28;20211;-69
2021/11/09 11:47:04;;;;;;;7.13;3.55;;;9.60;99.90;;;;;;5091467;28;20216;-68
2021/11/09 11:49:50;;;;;;;3.65;3.35;;;9.60;99.90;;;;;;5087891;28;20219;-67
2021/11/09 11:52:31;;;;;;;3.92;3.63;;;9.60;99.90;;;;;;5109672;28;20247;-67
2021/11/09 11:55:21;;;;;;;4.50;4.10;;;9.60;99.90;;;;;;5101859;28;20246;-67
2021/11/09 11:57:55;;;;;;;5.93;5.43;;;9.60;99.90;;;;;;5103725;28;20269;-68
2021/11/09 12:00:30;;;;;;;5.32;4.82;;;9.60;99.90;;;;;;5094005;28;20642;-68
2021/11/09 12:03:05;;;;;;;5.88;5.47;;;9.60;99.90;;;;;;5106122;28;20566;-68
2021/11/09 12:05:39;;;;;;;6.20;5.70;;;9.70;99.90;;;;;;5091660;28;20230;-71
2021/11/09 12:08:11;;;;;;;6.72;6.15;;;9.70;99.90;;;;;;5088329;28;20726;-67
2021/11/09 12:10:47;;;;;;;6.95;6.15;;;9.80;99.90;;;;;;5100510;28;20294;-67
2021/11/09 12:13:21;;;;;;;5.95;5.45;;;9.70;99.90;;;;;;5096884;28;20216;-69
2021/11/09 12:15:55;;;;;;;6.38;5.88;;;9.80;99.90;;;;;;5092207;28;20221;-67
2021/11/09 12:18:43;;;;;;;6.45;5.85;;;9.80;99.90;;;;;;5091533;28;20699;-68
2021/11/09 12:21:41;;;;;;;5.70;5.20;;;9.90;99.90;;;;;;5092147;28;20216;-70
2021/11/09 12:24:18;;;;;;;7.18;6.57;;;9.90;99.90;;;;;;5089422;28;20458;-68
2021/11/09 12:26:57;;;;;;;7.68;5.20;;;10.00;99.90;;;;;;5088334;28;20696;-68
2021/11/09 12:29:54;;;;;;;5.93;5.40;;;10.10;99.90;;;;;;5087742;28;20204;-72
2021/11/09 12:32:38;;;;;;;5.80;5.28;;;10.20;99.90;;;;;;5088435;28;20204;-71
2021/11/09 12:35:22;;;;;;;4.95;4.55;;;10.20;99.90;;;;;;5108896;28;20224;-72
2021/11/09 12:38:17;;;;;;;5.35;4.32;;;10.30;99.90;;;;;;5113146;28;20216;-70
2021/11/09 12:40:56;;;;;;;4.70;3.92;;;10.40;99.90;;;;;;5098535;28;20564;-69
2021/11/09 12:43:44;;;;;;;3.92;3.63;;;10.50;99.90;;;;;;5101412;28;20212;-68
2021/11/09 12:46:22;;;;;;;4.43;4.03;;;10.50;99.90;;;;;;5093733;28;20207;-69
2021/11/09 12:48:59;;;;;;;4.05;3.70;;;10.60;99.90;;;;;;5104051;28;20233;-72
2021/11/09 12:51:33;;;;;;;3.70;3.40;;;10.60;99.90;;;;;;5105985;28;20219;-71
2021/11/09 12:54:07;;;;;;;3.37;3.07;;;10.70;99.90;;;;;;5095681;28;20927;-69
2021/11/09 12:56:40;;;;;;;2.80;2.60;;;10.70;99.90;;;;;;5100820;28;20628;-72
2021/11/09 12:59:19;;;;;;;2.70;2.50;;;10.80;99.90;;;;;;5092739;28;20212;-68
2021/11/09 13:01:57;;;;;;;2.53;2.33;;;10.80;99.90;;;;;;5091003;28;20421;-68
2021/11/09 13:04:29;;;;;;;2.00;1.90;;;10.80;99.90;;;;;;5103929;28;20519;-69
2021/11/09 13:07:13;;;;;;;1.63;1.52;;;10.80;99.90;;;;;;5104469;28;20635;-68
2021/11/09 13:09:47;;;;;;;1.83;1.73;;;10.90;99.90;;;;;;5101813;27;20221;-68
2021/11/09 13:12:19;;;;;;;1.53;1.43;;;10.80;99.90;;;;;;5106365;28;20212;-69
2021/11/09 13:14:52;;;;;;;2.08;1.92;;;10.90;99.90;;;;;;5105820;28;20485;-70
2021/11/09 13:17:38;;;;;;;1.60;1.50;;;10.80;99.90;;;;;;5091761;28;20716;-71
2021/11/09 13:20:20;;;;;;;1.15;1.10;;;10.90;99.90;;;;;;5092506;28;20812;-73
2021/11/09 13:22:58;;;;;;;1.63;1.52;;;10.90;99.90;;;;;;5105664;28;20219;-68
2021/11/09 13:25:33;;;;;;;1.80;0.97;;;10.90;99.90;;;;;;5100769;28;20686;-68
2021/11/09 13:28:07;;;;;;;1.20;1.20;;;10.90;99.90;;;;;;5105495;28;20823;-68
2021/11/09 13:30:56;;;;;;;1.67;1.33;;;10.90;99.90;;;;;;5097742;28;20937;-68
2021/11/09 13:33:28;;;;;;;1.25;1.25;;;11.00;99.90;;;;;;5099544;28;20845;-68
2021/11/09 13:36:00;;;;;;;1.37;1.17;;;11.00;99.90;;;;;;5097700;28;20618;-73
2021/11/09 13:38:36;;;;;;;1.10;0.90;;;11.00;99.90;;;;;;5092213;28;20544;-69
2021/11/09 13:41:08;;;;;;;2.70;1.02;;;11.00;99.90;;;;;;5090785;28;20450;-71
2021/11/09 13:43:41;;;;;;;0.95;0.80;;;11.00;99.90;;;;;;5107104;28;20215;-69
2021/11/09 13:46:14;;;;;;;0.82;0.75;;;11.00;99.90;;;;;;5091663;28;20296;-69
2021/11/09 13:48:49;;;;;;;1.27;0.80;;;10.90;99.90;;;;;;5109975;28;20260;-69
2021/11/09 13:51:25;;;;;;;0.80;0.80;;;10.90;99.90;;;;;;5093820;28;20904;-69
2021/11/09 13:54:01;;;;;;;0.70;0.70;;;10.90;99.90;;;;;;5091741;28;20446;-70
2021/11/09 13:56:32;;;;;;;1.50;0.80;;;10.90;99.90;;;;;;5088511;28;20940;-71
2021/11/09 13:59:05;;;;;;;0.73;0.73;;;10.80;99.90;;;;;;5100410;28;20797;-69
2021/11/09 14:01:39;;;;;;;2.60;0.93;;;10.80;99.90;;;;;;5104211;28;20461;-68
2021/11/09 14:04:30;;;;;;;2.90;1.30;;;10.90;99.90;;;;;;5104898;28;20231;-69
2021/11/09 14:13:27;;;;;;;3.60;1.50;;;10.70;99.90;;;;;;5091264;28;20635;-69
2021/11/09 14:16:30;;;;;;;3.47;1.40;;;10.70;99.90;;;;;;5100091;28;20488;-67
2021/11/09 14:19:01;;;;;;;4.43;1.40;;;10.70;99.90;;;;;;5098675;28;21010;-70
2021/11/09 14:21:34;;;;;;;6.60;1.80;;;10.60;99.90;;;;;;5098682;28;20451;-72
2021/11/09 14:24:16;;;;;;;3.08;2.00;;;10.60;99.90;;;;;;5091017;28;20458;-71
2021/11/09 14:27:01;;;;;;;5.03;1.58;;;10.50;99.90;;;;;;5095746;28;20207;-72
2021/11/09 14:29:33;;;;;;;8.37;1.83;;;10.50;99.90;;;;;;5111495;28;20303;-71
2021/11/09 14:32:09;;;;;;;4.77;1.73;;;10.40;99.90;;;;;;5090940;28;20466;-69
2021/11/09 14:34:40;;;;;;;2.97;1.97;;;10.40;99.90;;;;;;5103848;28;20459;-69
2021/11/09 14:37:18;;;;;;;5.45;2.05;;;10.50;99.90;;;;;;5098708;28;20477;-71
2021/11/09 14:40:03;;;;;;;2.53;1.83;;;10.40;99.90;;;;;;5111225;28;20239;-68
2021/11/09 14:43:04;;;;;;;5.27;1.60;;;10.40;99.90;;;;;;5103277;28;20216;-72
2021/11/09 14:45:39;;;;;;;4.13;1.70;;;10.40;99.90;;;;;;5097653;28;20454;-72
2021/11/09 14:48:13;;;;;;;7.20;1.90;;;10.30;99.90;;;;;;5090030;28;20462;-71
2021/11/09 14:50:49;;;;;;;5.40;1.85;;;10.30;99.90;;;;;;5088731;28;20208;-70
2021/11/09 14:53:24;;;;;;;5.90;2.00;;;10.30;99.90;;;;;;5101297;28;20212;-70
2021/11/09 14:55:58;;;;;;;4.30;2.10;;;10.20;99.90;;;;;;5088910;28;20589;-69
2021/11/09 14:58:33;;;;;;;5.57;2.27;;;10.20;99.90;;;;;;5102314;28;20450;-68
2021/11/09 15:01:23;;;;;;;5.75;1.75;;;10.20;99.90;;;;;;5105781;28;20919;-69
2021/11/09 15:04:00;;;;;;;5.68;1.95;;;10.20;99.90;;;;;;5111159;28;20228;-71
2021/11/09 15:06:42;;;;;;;6.72;3.28;;;10.20;99.90;;;;;;5096722;28;20253;-69